Time;durP1;ratioP1;P1;durP2;ratioP2;P2;SDS_P1;SDS_P2;PMS_P1;PMS_P2;Temp;Humidity;BMP_temperature;BMP_pressure;BME280_temperature;BME280_humidity;BME280_pressure;Samples;Min_cycle;Max_cycle;Signal;HPM_P1;HPM_P2
2021/03/29 00:00:21;;;;;;;14.93;5.00;;;;;;;9.55;59.46;101413.22;5018285;28;20053;-68
2021/03/29 00:02:49;;;;;;;15.05;5.68;;;;;;;9.49;59.63;101406.31;5017192;28;20069;-68
2021/03/29 00:05:17;;;;;;;15.95;5.07;;;;;;;9.50;59.84;101421.38;5017151;28;20058;-69
2021/03/29 00:07:45;;;;;;;19.23;5.30;;;;;;;9.49;59.36;101414.31;5018527;28;20054;-69
2021/03/29 00:10:13;;;;;;;22.73;5.85;;;;;;;9.48;59.67;101418.75;5016984;28;20054;-69
2021/03/29 00:12:42;;;;;;;16.90;5.50;;;;;;;9.51;59.14;101418.66;5018346;28;20050;-69
2021/03/29 00:15:12;;;;;;;16.48;4.70;;;;;;;9.57;59.12;101422.91;5018200;28;20061;-69
2021/03/29 00:17:40;;;;;;;16.63;6.33;;;;;;;9.53;59.39;101423.91;5017068;28;20065;-68
2021/03/29 00:20:13;;;;;;;16.85;5.40;;;;;;;9.51;59.55;101423.13;5018233;28;20042;-69
2021/03/29 00:22:40;;;;;;;15.40;5.10;;;;;;;9.45;59.73;101412.69;5017939;28;20427;-70
2021/03/29 00:25:11;;;;;;;17.50;4.95;;;;;;;9.47;59.39;101418.81;5018009;28;20068;-69
2021/03/29 00:27:37;;;;;;;14.27;5.63;;;;;;;9.44;59.34;101410.94;5017908;28;20436;-70
2021/03/29 00:30:08;;;;;;;16.65;5.13;;;;;;;9.37;59.42;101396.94;5017923;28;20108;-69
2021/03/29 00:32:35;;;;;;;16.05;4.93;;;;;;;9.40;59.70;101401.31;5018114;28;20053;-70
2021/03/29 00:35:01;;;;;;;13.68;5.20;;;;;;;9.36;59.53;101408.53;5017870;28;20054;-69
2021/03/29 00:37:28;;;;;;;15.60;4.40;;;;;;;9.36;60.04;101409.44;5016437;28;20057;-69
2021/03/29 00:39:55;;;;;;;15.65;4.43;;;;;;;9.36;59.70;101414.75;5017222;28;20458;-69
2021/03/29 00:42:22;;;;;;;15.70;4.63;;;;;;;9.33;59.96;101414.84;5016833;28;20046;-70
2021/03/29 00:44:48;;;;;;;15.35;4.95;;;;;;;9.37;59.47;101411.16;5017568;28;20053;-69
2021/03/29 00:47:15;;;;;;;13.13;4.70;;;;;;;9.40;59.66;101404.84;5017302;28;20049;-70
2021/03/29 00:49:41;;;;;;;15.70;4.60;;;;;;;9.36;59.44;101412.09;5017494;28;20053;-71
2021/03/29 00:52:08;;;;;;;20.50;5.50;;;;;;;9.44;59.10;101410.94;5017588;28;20108;-69
2021/03/29 00:54:37;;;;;;;21.33;4.30;;;;;;;9.44;59.41;101405.63;5017208;28;20141;-69
2021/03/29 00:57:04;;;;;;;19.90;4.95;;;;;;;9.41;59.01;101392.41;5017329;28;20088;-69
2021/03/29 00:59:30;;;;;;;12.48;3.92;;;;;;;9.40;59.44;101404.84;5012859;28;20122;-69
2021/03/29 01:01:57;;;;;;;12.77;3.70;;;;;;;9.38;58.96;101396.91;4997616;28;20066;-69
2021/03/29 01:04:23;;;;;;;15.65;5.28;;;;;;;9.41;58.95;101400.41;4997523;28;20050;-69
2021/03/29 01:06:52;;;;;;;13.05;4.13;;;;;;;9.45;58.89;101391.34;4997827;28;20054;-69
2021/03/29 01:09:25;;;;;;;20.02;3.85;;;;;;;9.46;58.71;101404.63;4997662;28;20057;-69
2021/03/29 01:11:55;;;;;;;17.13;4.18;;;;;;;9.47;58.55;101395.72;4997415;28;20105;-69
2021/03/29 01:14:28;;;;;;;14.10;3.90;;;;;;;9.51;58.91;101401.78;4980485;28;20056;-69
2021/03/29 01:17:05;;;;;;;13.82;3.97;;;;;;;9.46;59.18;101409.09;4997184;28;20058;-69
2021/03/29 01:19:55;;;;;;;11.38;3.75;;;;;;;9.48;58.78;101409.91;4997457;28;20061;-69
2021/03/29 01:22:25;;;;;;;10.90;3.97;;;;;;;9.43;59.08;101402.06;4997202;28;20054;-69
2021/03/29 01:25:01;;;;;;;12.18;3.83;;;;;;;9.48;58.71;101404.59;4997150;28;20047;-69
2021/03/29 01:27:31;;;;;;;13.80;3.28;;;;;;;9.38;59.32;101406.72;4997198;28;20054;-70
2021/03/29 01:29:58;;;;;;;19.90;4.05;;;;;;;9.44;58.71;101409.16;4997200;28;20057;-70
2021/03/29 01:32:26;;;;;;;16.83;4.82;;;;;;;9.45;58.83;101399.34;4997174;28;20053;-69
2021/03/29 01:34:53;;;;;;;14.57;3.40;;;;;;;9.51;58.61;101397.34;4997477;28;20069;-69
2021/03/29 01:37:21;;;;;;;15.07;3.53;;;;;;;9.46;58.40;101393.97;4997198;28;20093;-69
2021/03/29 01:39:49;;;;;;;10.52;3.45;;;;;;;9.51;58.53;101396.47;4997083;28;20046;-69
2021/03/29 01:42:17;;;;;;;14.95;3.53;;;;;;;9.48;58.50;101397.44;4997427;28;20058;-69
2021/03/29 01:44:44;;;;;;;17.77;4.18;;;;;;;9.47;58.56;101393.03;4997168;28;20073;-69
2021/03/29 01:47:10;;;;;;;12.48;3.83;;;;;;;9.45;58.56;101388.69;4996647;28;20058;-69
2021/03/29 01:49:38;;;;;;;15.32;4.00;;;;;;;9.49;58.32;101393.84;4996549;28;20050;-70
2021/03/29 01:52:05;;;;;;;11.18;3.00;;;;;;;9.42;58.61;101389.66;4996049;28;20058;-70
2021/03/29 01:54:33;;;;;;;12.07;3.22;;;;;;;9.45;58.79;101394.91;4996250;28;20137;-69
2021/03/29 01:57:09;;;;;;;15.57;3.60;;;;;;;9.45;58.93;101391.34;4995422;28;20101;-70
2021/03/29 01:59:36;;;;;;;14.82;3.53;;;;;;;9.54;58.30;101387.50;5002047;28;20061;-70
2021/03/29 02:02:04;;;;;;;14.10;3.38;;;;;;;9.47;58.24;101379.72;5016120;28;20054;-69
2021/03/29 02:04:30;;;;;;;8.90;2.63;;;;;;;9.57;58.46;101379.38;5015126;28;20120;-69
2021/03/29 02:07:00;;;;;;;13.73;3.70;;;;;;;9.53;58.31;101389.28;5015944;28;20073;-69
2021/03/29 02:09:26;;;;;;;13.95;3.00;;;;;;;9.53;58.51;101391.94;5016093;28;20133;-70
2021/03/29 02:11:53;;;;;;;14.77;4.82;;;;;;;9.46;58.52;101383.31;5015254;28;20057;-70
2021/03/29 02:14:20;;;;;;;13.60;3.50;;;;;;;9.53;58.66;101386.59;5016095;28;20045;-70
2021/03/29 02:16:47;;;;;;;13.60;3.85;;;;;;;9.55;58.57;101392.78;5015482;28;20065;-69
2021/03/29 02:19:14;;;;;;;11.43;2.90;;;;;;;9.57;58.42;101390.03;5016115;28;20046;-70
2021/03/29 02:21:42;;;;;;;10.93;2.60;;;;;;;9.55;58.77;101397.22;5016268;28;20049;-70
2021/03/29 02:24:11;;;;;;;11.57;2.67;;;;;;;9.56;58.67;101402.50;5015705;28;20057;-69
2021/03/29 02:26:41;;;;;;;9.25;2.72;;;;;;;9.51;58.95;101397.34;5015944;28;20053;-70
2021/03/29 02:29:08;;;;;;;8.85;2.47;;;;;;;9.54;58.79;101403.47;5015752;28;20054;-70
2021/03/29 02:31:37;;;;;;;9.90;2.97;;;;;;;9.51;58.99;101396.47;5015857;28;20367;-68
2021/03/29 02:34:05;;;;;;;14.65;3.92;;;;;;;9.53;59.19;101399.09;5014508;28;20544;-69
2021/03/29 02:36:33;;;;;;;10.65;2.80;;;;;;;9.55;59.21;101399.88;5015615;28;20088;-69
2021/03/29 02:38:59;;;;;;;11.63;2.72;;;;;;;9.55;59.08;101399.88;5014721;28;20383;-69
2021/03/29 02:41:30;;;;;;;9.15;2.70;;;;;;;9.62;59.00;101404.06;5015459;28;20057;-70
2021/03/29 02:43:57;;;;;;;;;;;;;;;9.63;58.94;101405.78;5016065;28;20054;-69
2021/03/29 02:46:26;;;;;;;10.77;2.70;;;;;;;9.56;59.49;101391.84;5015734;28;19928;-69
2021/03/29 02:48:54;;;;;;;16.20;2.88;;;;;;;9.65;58.98;101399.47;5014403;28;20053;-69
2021/03/29 02:51:20;;;;;;;8.27;2.20;;;;;;;9.65;59.04;101407.47;5015603;28;20052;-69
2021/03/29 02:53:50;;;;;;;10.25;2.40;;;;;;;9.63;59.23;101396.03;5014460;28;20054;-69
2021/03/29 02:56:23;;;;;;;10.50;2.10;;;;;;;9.63;59.20;101405.78;5015675;28;20497;-69
2021/03/29 02:58:56;;;;;;;11.15;2.92;;;;;;;9.62;59.16;101402.28;5015412;28;20053;-69
2021/03/29 03:01:25;;;;;;;13.90;3.20;;;;;;;9.56;59.50;101410.50;4996150;28;20159;-69
2021/03/29 03:03:53;;;;;;;7.00;1.98;;;;;;;9.56;59.55;101407.84;4996813;28;20107;-69
2021/03/29 03:06:24;;;;;;;8.57;2.42;;;;;;;9.54;59.62;101404.38;5000138;28;20416;-68
2021/03/29 03:08:52;;;;;;;11.98;2.40;;;;;;;9.61;59.41;101413.88;4999592;28;20046;-69
2021/03/29 03:11:20;;;;;;;9.52;2.60;;;;;;;9.51;59.58;101407.13;4999951;28;20055;-69
2021/03/29 03:13:48;;;;;;;10.65;2.40;;;;;;;9.45;59.79;101399.34;4999724;28;20057;-69
2021/03/29 03:16:15;;;;;;;11.20;2.60;;;;;;;9.46;59.84;101407.31;4999986;28;20057;-70
2021/03/29 03:18:41;;;;;;;8.20;2.30;;;;;;;9.46;59.89;101414.41;4999329;28;20065;-69
2021/03/29 03:21:08;;;;;;;10.15;2.30;;;;;;;9.49;59.78;101419.66;4999507;28;20129;-69
2021/03/29 03:23:34;;;;;;;14.73;3.22;;;;;;;9.45;60.25;101415.34;4998336;28;20051;-70
2021/03/29 03:26:01;;;;;;;7.22;2.25;;;;;;;9.42;60.07;101418.97;4999223;28;20112;-70
2021/03/29 03:28:28;;;;;;;14.77;2.78;;;;;;;9.41;60.10;101421.72;4999431;28;20085;-69
2021/03/29 03:30:58;;;;;;;10.20;2.40;;;;;;;9.46;60.13;101414.41;4998472;28;20063;-70
2021/03/29 03:33:27;;;;;;;14.40;2.67;;;;;;;9.47;60.15;101424.13;4999432;28;20061;-70
2021/03/29 03:35:55;;;;;;;13.43;3.50;;;;;;;9.40;60.09;101407.53;4999061;28;20714;-69
2021/03/29 03:38:36;;;;;;;11.18;1.90;;;;;;;9.42;60.19;101412.81;4999276;28;20061;-71
2021/03/29 03:41:06;;;;;;;;;;;;;;;9.39;60.39;101421.78;4999675;28;20078;-68
2021/03/29 03:43:36;;;;;;;15.50;2.42;;;;;;;9.37;60.45;101416.50;4999593;28;19922;-69
2021/03/29 03:46:07;;;;;;;11.45;2.40;;;;;;;9.36;60.53;101417.41;4999059;28;20054;-68
2021/03/29 03:48:33;;;;;;;;;;;;;;;9.37;60.33;101426.25;4999597;28;20058;-68
2021/03/29 03:51:00;;;;;;;10.07;2.53;;;;;;;9.36;60.56;101408.53;4998853;28;19921;-69
2021/03/29 03:53:28;;;;;;;11.27;2.72;;;;;;;9.33;60.61;101408.66;5014209;28;20054;-69
2021/03/29 03:55:57;;;;;;;8.15;2.25;;;;;;;9.32;60.80;101410.44;4998980;28;20238;-69
2021/03/29 03:58:27;;;;;;;9.73;2.75;;;;;;;9.29;60.77;101402.56;4998766;28;20070;-69
2021/03/29 04:00:56;;;;;;;6.65;2.08;;;;;;;9.24;60.73;101405.41;5014705;28;20265;-69
2021/03/29 04:03:29;;;;;;;12.18;2.42;;;;;;;9.24;61.10;101412.53;5017274;28;20133;-69
2021/03/29 04:05:57;;;;;;;9.30;2.20;;;;;;;9.22;60.97;101406.38;5018123;28;20058;-69
2021/03/29 04:08:39;;;;;;;13.40;2.63;;;;;;;9.18;60.97;101410.06;5018766;28;20061;-69
2021/03/29 04:11:06;;;;;;;11.13;2.70;;;;;;;9.20;61.15;101402.88;5018766;28;20080;-70
2021/03/29 04:13:33;;;;;;;7.63;1.85;;;;;;;9.18;61.33;101410.94;5019294;28;20423;-69
2021/03/29 04:16:03;;;;;;;9.40;2.78;;;;;;;9.10;61.66;101397.03;5017618;28;20137;-69
2021/03/29 04:18:29;;;;;;;12.88;3.00;;;;;;;9.09;61.88;101404.16;5017161;28;20123;-68
2021/03/29 04:20:57;;;;;;;12.02;2.67;;;;;;;8.99;62.07;101394.72;5017812;28;20176;-71
2021/03/29 04:23:25;;;;;;;10.57;2.45;;;;;;;9.07;61.87;101414.00;5017638;28;20511;-69
2021/03/29 04:25:53;;;;;;;9.73;2.53;;;;;;;9.04;62.03;101402.56;5017799;28;20054;-69
2021/03/29 04:28:19;;;;;;;8.65;2.00;;;;;;;9.01;61.93;101400.88;5017717;28;20108;-69
2021/03/29 04:30:46;;;;;;;11.73;2.50;;;;;;;9.01;62.33;101411.53;5017865;28;20050;-69
2021/03/29 04:33:12;;;;;;;10.38;2.35;;;;;;;8.95;62.51;101396.63;5017872;28;20058;-69
2021/03/29 04:35:38;;;;;;;7.40;2.08;;;;;;;8.91;62.48;101408.31;5017537;28;20065;-68
2021/03/29 04:38:04;;;;;;;10.07;3.30;;;;;;;8.90;62.72;101413.69;5017420;28;20061;-69
2021/03/29 04:40:32;;;;;;;9.90;2.38;;;;;;;8.94;62.48;101402.03;5017396;28;20427;-69
2021/03/29 04:42:58;;;;;;;7.63;2.30;;;;;;;8.97;62.50;101404.56;5016450;28;20054;-70
2021/03/29 04:45:25;;;;;;;10.93;2.33;;;;;;;8.97;62.34;101415.22;5017331;28;20057;-70
2021/03/29 04:47:52;;;;;;;9.70;2.45;;;;;;;8.96;62.49;101416.16;5017375;28;20379;-70
2021/03/29 04:50:20;;;;;;;11.77;2.20;;;;;;;8.93;62.49;101422.44;5016473;28;20064;-70
2021/03/29 04:52:46;;;;;;;9.73;2.45;;;;;;;8.98;62.46;101418.75;5017205;28;20471;-70
2021/03/29 04:55:14;;;;;;;19.05;2.97;;;;;;;9.02;62.07;101423.94;5016369;28;20104;-69
2021/03/29 04:57:40;;;;;;;5.35;2.03;;;;;;;8.95;62.44;101414.41;5000210;28;20050;-69
2021/03/29 05:00:08;;;;;;;10.10;2.50;;;;;;;8.97;62.78;101425.88;4996528;28;20054;-69
2021/03/29 05:02:34;;;;;;;10.23;2.03;;;;;;;8.87;62.71;101411.16;4997642;28;20065;-70
2021/03/29 05:05:01;;;;;;;10.23;2.05;;;;;;;8.93;62.63;101430.44;4997258;28;20128;-69
2021/03/29 05:07:27;;;;;;;8.10;2.55;;;;;;;8.89;62.83;101434.09;4995743;28;20112;-70
2021/03/29 05:09:53;;;;;;;10.35;2.60;;;;;;;8.97;62.61;101425.88;4995487;28;20057;-70
2021/03/29 05:12:22;;;;;;;9.10;2.22;;;;;;;8.96;62.44;101432.13;4994341;28;20050;-69
2021/03/29 05:14:51;;;;;;;9.90;2.67;;;;;;;8.90;62.39;101433.22;4995506;28;20050;-70
2021/03/29 05:17:18;;;;;;;11.32;2.30;;;;;;;8.94;62.58;101432.16;4995280;28;20061;-70
2021/03/29 05:19:44;;;;;;;12.13;2.92;;;;;;;8.90;62.30;101427.00;4995343;28;20053;-70
2021/03/29 05:22:10;;;;;;;6.53;2.20;;;;;;;8.93;62.53;101429.56;4997161;28;20054;-69
2021/03/29 05:24:37;;;;;;;10.35;2.45;;;;;;;8.83;62.58;101426.34;5012180;28;20105;-70
2021/03/29 05:27:05;;;;;;;12.07;2.83;;;;;;;8.93;62.49;101441.09;5012296;28;20058;-69
2021/03/29 05:29:45;;;;;;;10.60;2.10;;;;;;;8.99;62.22;101437.31;4997147;28;20046;-69
2021/03/29 05:32:23;;;;;;;10.40;2.40;;;;;;;9.01;62.31;101437.28;4996997;28;20356;-70
2021/03/29 05:34:52;;;;;;;11.93;2.53;;;;;;;8.92;62.51;101425.16;4996841;28;20053;-69
2021/03/29 05:37:19;;;;;;;8.75;2.53;;;;;;;8.96;62.49;101446.31;4996818;28;20061;-70
2021/03/29 05:39:51;;;;;;;8.23;2.60;;;;;;;9.01;62.53;101439.94;4996681;28;20073;-69
2021/03/29 05:42:19;;;;;;;8.32;2.60;;;;;;;8.96;62.64;101435.66;4997215;28;20054;-70
2021/03/29 05:44:45;;;;;;;11.07;2.53;;;;;;;8.99;62.47;101449.78;4996674;28;20058;-70
2021/03/29 05:47:13;;;;;;;13.43;2.83;;;;;;;9.03;62.46;101443.41;4996693;28;20372;-71
2021/03/29 05:49:39;;;;;;;11.85;2.42;;;;;;;9.03;62.55;101451.41;4995598;28;20050;-71
2021/03/29 05:52:05;;;;;;;9.77;2.45;;;;;;;9.02;62.56;101447.00;4999337;28;20061;-69
2021/03/29 05:54:32;;;;;;;5.75;2.03;;;;;;;9.00;62.58;101439.09;5015033;28;20509;-70
2021/03/29 05:56:58;;;;;;;7.05;2.22;;;;;;;9.00;62.68;101457.75;5016340;28;20050;-69
2021/03/29 05:59:27;;;;;;;8.65;2.00;;;;;;;9.03;62.84;101456.75;5016026;28;20473;-68
2021/03/29 06:01:56;;;;;;;12.93;2.60;;;;;;;9.02;62.94;101457.66;5015135;28;20054;-69
2021/03/29 06:04:42;;;;;;;9.57;2.20;;;;;;;9.06;62.51;101465.50;5015994;28;20046;-67
2021/03/29 06:07:18;;;;;;;10.63;2.50;;;;;;;9.03;62.46;101451.41;5016250;28;20057;-68
2021/03/29 06:09:46;;;;;;;13.15;2.80;;;;;;;9.13;62.47;101460.84;5015058;28;20054;-68
2021/03/29 06:12:14;;;;;;;10.15;2.42;;;;;;;9.16;62.46;101465.19;5015896;28;20050;-71
2021/03/29 06:14:43;;;;;;;14.32;2.58;;;;;;;9.20;62.36;101472.16;5015891;28;20184;-68
2021/03/29 06:17:11;;;;;;;11.20;2.30;;;;;;;9.22;62.48;101475.66;5016079;28;20063;-69
2021/03/29 06:19:47;;;;;;;14.75;2.47;;;;;;;9.26;61.96;101474.59;5016208;28;20049;-69
2021/03/29 06:22:27;;;;;;;9.43;2.22;;;;;;;9.30;62.04;101478.03;5015652;28;20111;-69
2021/03/29 06:24:55;;;;;;;11.50;2.50;;;;;;;9.30;62.22;101473.59;5015906;28;20108;-69
2021/03/29 06:27:23;;;;;;;15.45;3.22;;;;;;;9.37;61.66;101480.44;5015949;28;20088;-69
2021/03/29 06:29:50;;;;;;;9.85;2.88;;;;;;;9.41;62.04;101491.00;5014971;28;20054;-69
2021/03/29 06:32:20;;;;;;;11.70;2.60;;;;;;;9.47;61.36;101481.00;5014757;28;20046;-70
2021/03/29 06:34:47;;;;;;;14.43;3.60;;;;;;;9.49;61.38;101483.59;5016025;28;20073;-69
2021/03/29 06:37:18;;;;;;;10.55;2.05;;;;;;;9.51;61.58;101485.31;5014700;28;20395;-69
2021/03/29 06:39:45;;;;;;;10.65;1.95;;;;;;;9.53;61.51;101487.03;5015245;28;20104;-69
2021/03/29 06:42:11;;;;;;;9.07;2.63;;;;;;;9.53;61.53;101463.91;5015522;28;20054;-73
2021/03/29 06:44:38;;;;;;;12.48;2.97;;;;;;;9.57;61.67;101486.88;5016037;28;20383;-69
2021/03/29 06:47:19;;;;;;;9.07;2.17;;;;;;;9.68;61.39;101498.94;4998546;28;20146;-69
2021/03/29 06:49:52;;;;;;;10.20;2.60;;;;;;;9.65;61.35;101479.47;5017776;28;20470;-69
2021/03/29 06:52:30;;;;;;;12.77;3.30;;;;;;;9.72;61.67;101485.47;5015736;28;20392;-69
2021/03/29 06:55:18;;;;;;;13.48;3.35;;;;;;;9.70;61.60;101481.09;5016998;28;20062;-69
2021/03/29 06:57:45;;;;;;;12.27;2.50;;;;;;;9.80;61.44;101497.63;5017129;28;20053;-68
2021/03/29 07:00:26;;;;;;;15.98;3.28;;;;;;;9.91;61.41;101493.66;5017510;28;20053;-68
2021/03/29 07:02:53;;;;;;;12.32;2.42;;;;;;;9.94;61.18;101479.34;5015456;28;20128;-69
2021/03/29 07:05:20;;;;;;;5.43;2.15;;;;;;;10.10;60.79;101500.09;5015213;28;20069;-68
2021/03/29 07:07:47;;;;;;;9.90;2.72;;;;;;;10.12;61.00;101499.09;5014248;28;20105;-68
2021/03/29 07:10:14;;;;;;;14.57;2.38;;;;;;;10.13;61.17;101498.16;5014205;28;20060;-68
2021/03/29 07:12:42;;;;;;;15.20;2.75;;;;;;;10.18;61.14;101503.31;5014185;28;20082;-69
2021/03/29 07:15:10;;;;;;;9.60;2.20;;;;;;;10.19;61.12;101500.59;5015102;28;20049;-67
2021/03/29 07:17:38;;;;;;;13.90;2.40;;;;;;;10.24;60.79;101499.56;5014974;28;20391;-69
2021/03/29 07:20:07;;;;;;;16.23;3.35;;;;;;;10.30;60.89;101499.34;5014893;28;20435;-70
2021/03/29 07:22:36;;;;;;;9.93;2.55;;;;;;;10.37;60.65;101497.28;5013979;28;20482;-69
2021/03/29 07:25:06;;;;;;;12.95;2.67;;;;;;;10.43;60.44;101505.97;5015046;28;20061;-69
2021/03/29 07:27:38;;;;;;;7.70;2.33;;;;;;;10.48;61.12;101500.47;5015098;28;20060;-69
2021/03/29 07:30:05;;;;;;;13.02;2.10;;;;;;;10.68;60.20;101510.34;5015332;28;20112;-69
2021/03/29 07:32:35;;;;;;;9.55;2.42;;;;;;;10.75;60.13;101504.75;5015070;28;20100;-69
2021/03/29 07:35:04;;;;;;;9.75;2.40;;;;;;;10.80;60.26;101518.81;5015270;28;20054;-69
2021/03/29 07:37:53;;;;;;;10.90;2.63;;;;;;;10.84;60.15;101507.06;5013682;28;20062;-69
2021/03/29 07:40:19;;;;;;;10.60;2.60;;;;;;;10.95;59.98;101518.16;5014844;28;20057;-70
2021/03/29 07:42:51;;;;;;;11.80;2.47;;;;;;;10.96;59.10;101505.69;5014944;28;20105;-69
2021/03/29 07:45:26;;;;;;;9.05;2.65;;;;;;;11.03;59.08;101495.63;5015046;28;20061;-69
2021/03/29 07:47:54;;;;;;;11.75;2.75;;;;;;;11.27;59.42;101518.66;5015130;28;20049;-69
2021/03/29 07:50:24;;;;;;;11.65;2.83;;;;;;;11.28;59.21;101524.88;5015758;28;20058;-69
2021/03/29 07:52:57;;;;;;;7.43;2.20;;;;;;;11.38;58.61;101536.91;5018359;28;20058;-69
2021/03/29 07:55:34;;;;;;;14.65;2.45;;;;;;;11.43;58.81;101530.50;5018766;28;20049;-69
2021/03/29 07:58:13;;;;;;;8.95;2.20;;;;;;;11.49;58.40;101531.09;5018394;28;20049;-69
2021/03/29 08:00:41;;;;;;;14.13;2.53;;;;;;;11.59;57.76;101536.06;5018179;28;20506;-69
2021/03/29 08:03:10;;;;;;;12.38;2.72;;;;;;;11.68;57.94;101541.00;5018071;28;20120;-69
2021/03/29 08:05:41;;;;;;;10.80;2.47;;;;;;;11.74;57.85;101535.38;5018151;28;20046;-69
2021/03/29 08:08:26;;;;;;;11.20;2.30;;;;;;;11.81;57.76;101536.84;5018278;28;20060;-69
2021/03/29 08:11:17;;;;;;;9.18;2.83;;;;;;;11.94;56.49;101541.66;5018281;28;20395;-69
2021/03/29 08:13:57;;;;;;;9.88;2.33;;;;;;;11.98;56.54;101550.41;5018253;28;20355;-69
2021/03/29 08:16:27;;;;;;;10.70;2.65;;;;;;;12.01;56.42;101552.94;5018349;28;20119;-69
2021/03/29 08:19:06;;;;;;;;;;;;;;;12.04;56.55;101551.03;5017421;28;20056;-70
2021/03/29 08:22:05;;;;;;;8.90;2.47;;;;;;;12.09;55.95;101554.38;5017829;28;19921;-69
2021/03/29 08:24:32;;;;;;;13.00;2.83;;;;;;;12.17;55.66;101556.72;5017898;28;20363;-69
2021/03/29 08:27:31;;;;;;;7.63;2.40;;;;;;;12.22;55.28;101565.38;5017664;28;20145;-69
2021/03/29 08:30:14;;;;;;;8.50;2.70;;;;;;;12.34;54.98;101572.00;5017713;28;20053;-69
2021/03/29 08:32:41;;;;;;;12.00;3.03;;;;;;;12.35;55.16;101570.19;5017489;28;20049;-69
2021/03/29 08:35:08;;;;;;;8.57;2.35;;;;;;;12.45;54.31;101571.50;5017733;28;20050;-69
2021/03/29 08:37:56;;;;;;;15.77;3.80;;;;;;;12.50;54.16;101569.47;5017459;28;20058;-69
2021/03/29 08:40:30;;;;;;;13.38;3.22;;;;;;;12.52;53.66;101560.50;5032636;28;20061;-69
2021/03/29 08:43:02;;;;;;;10.45;2.38;;;;;;;12.66;51.50;101559.84;5017784;28;20053;-69
2021/03/29 08:45:29;;;;;;;6.20;2.30;;;;;;;12.68;51.83;101572.22;5017469;28;20049;-69
2021/03/29 08:47:57;;;;;;;17.55;3.38;;;;;;;12.74;51.44;101573.75;5017342;28;20444;-69
2021/03/29 08:50:34;;;;;;;7.40;1.92;;;;;;;12.83;51.67;101569.75;5016645;28;20054;-69
2021/03/29 08:53:04;;;;;;;10.77;3.05;;;;;;;12.88;51.69;101571.28;5017321;28;20058;-69
2021/03/29 08:55:39;;;;;;;9.50;2.47;;;;;;;12.96;50.05;101580.78;5017234;28;20050;-69
2021/03/29 08:58:06;;;;;;;7.88;2.03;;;;;;;12.96;50.27;101581.63;5017174;28;20152;-69
2021/03/29 09:00:41;;;;;;;8.48;2.40;;;;;;;12.97;49.83;101564.59;5017371;28;20100;-69
2021/03/29 09:03:17;;;;;;;10.50;2.50;;;;;;;13.03;50.34;101572.34;5016502;28;20049;-70
2021/03/29 09:05:43;;;;;;;7.70;2.80;;;;;;;13.20;50.29;101577.81;5017181;28;20057;-69
2021/03/29 09:08:11;;;;;;;10.82;2.55;;;;;;;13.27;48.68;101585.50;5016947;28;20054;-69
2021/03/29 09:10:38;;;;;;;11.90;2.20;;;;;;;13.32;48.21;101585.25;5017156;28;20046;-69
2021/03/29 09:13:06;;;;;;;7.07;2.47;;;;;;;13.41;47.22;101581.25;5015899;28;20057;-69
2021/03/29 09:15:36;;;;;;;10.68;2.30;;;;;;;13.52;46.97;101583.44;5017172;28;20046;-73
2021/03/29 09:18:06;;;;;;;13.33;2.77;;;;;;;13.53;46.73;101591.41;5017585;28;20046;-71
2021/03/29 09:20:36;;;;;;;7.82;1.90;;;;;;;13.58;45.22;101583.13;5016310;28;20057;-72
2021/03/29 09:23:03;;;;;;;7.50;2.15;;;;;;;13.65;46.12;101586.34;5016258;28;20077;-73
2021/03/29 09:25:38;;;;;;;9.13;2.22;;;;;;;13.73;46.07;101583.28;5015918;28;20140;-73
2021/03/29 09:31:18;;;;;;;13.52;2.25;;;;;;;13.91;45.20;101590.38;5016569;28;20050;-75
2021/03/29 09:33:47;;;;;;;10.82;3.17;;;;;;;14.04;44.68;101593.28;5016947;28;20148;-73
2021/03/29 09:36:16;;;;;;;14.73;2.50;;;;;;;14.08;44.04;101602.03;5016569;28;20108;-71
2021/03/29 09:38:48;;;;;;;8.98;2.10;;;;;;;14.08;44.51;101589.50;5015539;28;20053;-73
2021/03/29 09:41:17;;;;;;;10.70;2.10;;;;;;;14.17;43.07;101606.91;5016561;28;20060;-70
2021/03/29 09:43:45;;;;;;;8.32;2.20;;;;;;;14.09;42.94;101574.22;5016108;28;20391;-70
2021/03/29 09:46:11;;;;;;;6.85;2.10;;;;;;;14.37;43.01;101604.97;5016181;28;20104;-70
2021/03/29 09:48:38;;;;;;;9.02;1.80;;;;;;;14.50;43.04;101605.19;5016167;28;20066;-70
2021/03/29 09:51:21;;;;;;;8.88;1.90;;;;;;;14.63;42.42;101608.06;5016487;28;20053;-70
2021/03/29 09:53:48;;;;;;;10.73;2.33;;;;;;;14.75;41.74;101603.84;5016058;28;20522;-70
2021/03/29 09:56:29;;;;;;;14.52;3.03;;;;;;;14.80;40.72;101608.03;5015044;28;20432;-72
2021/03/29 09:58:55;;;;;;;5.65;1.83;;;;;;;14.83;41.96;101592.69;5015897;28;20088;-70
2021/03/29 10:01:24;;;;;;;7.72;2.22;;;;;;;15.02;40.36;101600.56;5016230;28;20056;-70
2021/03/29 10:03:58;;;;;;;4.35;1.50;;;;;;;15.06;40.20;101603.00;5016226;28;20352;-69
2021/03/29 10:06:26;;;;;;;9.98;2.33;;;;;;;15.17;40.06;101594.34;5016221;28;20325;-69
2021/03/29 10:09:03;;;;;;;8.57;2.00;;;;;;;15.27;40.97;101605.44;5015846;28;20344;-69
2021/03/29 10:11:49;;;;;;;7.22;1.73;;;;;;;15.35;40.42;101613.03;5015889;28;20049;-69
2021/03/29 10:14:16;;;;;;;9.05;2.10;;;;;;;15.42;40.09;101600.09;5030822;28;20053;-69
2021/03/29 10:16:50;;;;;;;11.23;1.98;;;;;;;15.55;40.31;101605.63;5016123;28;20065;-70
2021/03/29 10:19:19;;;;;;;8.48;2.00;;;;;;;15.65;40.42;101604.13;5015708;28;20428;-69
2021/03/29 10:22:16;;;;;;;7.35;2.60;;;;;;;15.81;39.19;101609.47;5015770;28;20077;-70
2021/03/29 10:25:18;;;;;;;11.00;2.20;;;;;;;15.95;39.33;101607.81;5015810;28;20050;-70
2021/03/29 10:27:50;;;;;;;6.80;1.77;;;;;;;16.08;38.42;101608.75;5014435;28;20145;-70
2021/03/29 10:30:19;;;;;;;10.25;2.00;;;;;;;16.12;37.74;101607.63;5016053;28;20052;-70
2021/03/29 10:32:56;;;;;;;16.48;2.30;;;;;;;16.17;38.28;101609.16;5014515;28;20061;-70
2021/03/29 10:35:25;;;;;;;8.55;1.70;;;;;;;16.33;36.48;101607.25;5015381;28;20063;-71
2021/03/29 10:37:52;;;;;;;5.38;1.75;;;;;;;16.50;34.23;101616.97;5014226;28;20440;-70
2021/03/29 10:40:19;;;;;;;7.60;1.42;;;;;;;16.61;31.53;101626.22;5015555;28;20359;-70
2021/03/29 10:42:45;;;;;;;5.90;1.38;;;;;;;16.69;29.89;101618.50;5015758;28;20058;-70
2021/03/29 10:45:15;;;;;;;11.68;1.60;;;;;;;16.72;29.56;101622.84;5015624;28;20058;-70
2021/03/29 10:47:42;;;;;;;4.20;1.45;;;;;;;16.79;29.75;101624.16;5015610;28;20076;-70
2021/03/29 10:50:11;;;;;;;7.15;1.52;;;;;;;16.85;30.02;101615.69;5015947;28;20046;-70
2021/03/29 10:52:37;;;;;;;5.85;1.50;;;;;;;17.00;29.36;101618.34;5016869;28;20424;-70
2021/03/29 10:55:05;;;;;;;5.15;1.40;;;;;;;17.03;28.78;101616.34;5017104;28;20050;-69
2021/03/29 10:57:31;;;;;;;7.47;1.60;;;;;;;17.19;29.26;101624.31;5017837;28;20050;-69
2021/03/29 10:59:57;;;;;;;6.00;1.50;;;;;;;17.41;29.27;101622.00;5018365;28;20042;-69
2021/03/29 11:02:24;;;;;;;4.88;1.42;;;;;;;17.50;28.49;101616.84;5018291;28;20076;-69
2021/03/29 11:04:50;;;;;;;7.90;1.67;;;;;;;17.61;28.79;101623.38;5016519;28;20064;-70
2021/03/29 11:07:16;;;;;;;4.88;1.38;;;;;;;17.67;28.75;101620.25;5015327;28;20104;-70
2021/03/29 11:09:42;;;;;;;5.90;1.45;;;;;;;17.74;28.63;101618.88;5014080;28;20050;-69
2021/03/29 11:12:09;;;;;;;4.00;1.65;;;;;;;17.61;28.08;101620.69;5015038;28;20517;-69
2021/03/29 11:14:35;;;;;;;9.65;1.88;;;;;;;17.76;28.43;101619.63;5014941;28;20061;-70
2021/03/29 11:17:03;;;;;;;9.95;2.13;;;;;;;17.88;28.30;101622.47;5015124;28;20085;-70
2021/03/29 11:19:29;;;;;;;6.30;1.60;;;;;;;17.81;27.98;101602.25;5015097;28;20054;-70
2021/03/29 11:21:55;;;;;;;7.32;2.10;;;;;;;17.85;26.79;101614.56;5013961;28;20061;-69
2021/03/29 11:24:22;;;;;;;5.55;1.40;;;;;;;17.89;27.10;101619.66;5015463;28;20053;-69
2021/03/29 11:26:49;;;;;;;10.68;1.67;;;;;;;18.01;26.53;101620.66;5018089;28;20100;-70
2021/03/29 11:29:15;;;;;;;6.63;1.73;;;;;;;18.10;26.75;101612.91;5018668;28;20058;-69
2021/03/29 11:31:43;;;;;;;3.67;1.30;;;;;;;18.33;26.74;101613.97;5018975;28;20057;-69
2021/03/29 11:34:10;;;;;;;5.97;1.48;;;;;;;18.32;26.00;101620.38;5018991;28;20049;-70
2021/03/29 11:36:36;;;;;;;6.63;1.77;;;;;;;18.15;25.54;101616.16;5018697;28;20050;-70
2021/03/29 11:39:06;;;;;;;6.47;1.73;;;;;;;18.34;26.80;101613.00;5018958;28;20053;-70
2021/03/29 11:41:32;;;;;;;7.30;1.90;;;;;;;18.52;27.61;101615.38;5017977;28;20056;-71